Time;durP1;ratioP1;P1;durP2;ratioP2;P2;SDS_P1;SDS_P2;PMS_P1;PMS_P2;Temp;Humidity;BMP_temperature;BMP_pressure;BME280_temperature;BME280_humidity;BME280_pressure;Samples;Min_cycle;Max_cycle;Signal;HPM_P1;HPM_P2
2022/01/29 00:01:02;;;;;;;49.28;23.85;;;;;;;;;;4969778;28;21049;-72
2022/01/29 00:03:30;;;;;;;52.67;23.42;;;;;;;;;;4952806;28;20093;-72
2022/01/29 00:05:57;;;;;;;47.58;24.10;;;;;;;;;;4970068;28;20025;-72
2022/01/29 00:08:22;;;;;;;52.63;23.20;;;;;;;;;;4969520;28;20560;-71
2022/01/29 00:10:53;;;;;;;47.60;23.35;;;;;;;;;;4953662;28;20050;-71
2022/01/29 00:13:18;;;;;;;59.45;23.02;;;;;;;;;;4969541;28;20116;-71
2022/01/29 00:15:44;;;;;;;53.95;25.10;;;;;;;;;;4954698;28;20056;-71
2022/01/29 00:18:09;;;;;;;44.45;23.50;;;;;;;;;;4968701;28;20026;-71
2022/01/29 00:20:34;;;;;;;47.95;23.95;;;;;;;;;;4965686;28;20033;-72
2022/01/29 00:23:00;;;;;;;56.78;25.95;;;;;;;;;;4958644;28;21131;-71
2022/01/29 00:25:25;;;;;;;53.47;24.08;;;;;;;;;;4969265;28;20022;-72
2022/01/29 00:27:52;;;;;;;50.78;23.63;;;;;;;;;;4953975;28;20056;-71
2022/01/29 00:30:18;;;;;;;46.67;26.13;;;;;;;;;;4969550;28;20045;-71
2022/01/29 00:32:44;;;;;;;48.88;25.02;;;;;;;;;;4965099;28;20022;-71
2022/01/29 00:35:10;;;;;;;53.08;26.83;;;;;;;;;;4958775;28;20057;-71
2022/01/29 00:37:35;;;;;;;49.70;26.40;;;;;;;;;;4968823;28;20033;-71
2022/01/29 00:40:01;;;;;;;58.80;25.90;;;;;;;;;;4953034;28;20050;-71
2022/01/29 00:42:26;;;;;;;50.55;26.83;;;;;;;;;;4970908;28;20030;-71
2022/01/29 00:44:52;;;;;;;53.25;28.63;;;;;;;;;;4965918;28;20060;-71
2022/01/29 00:47:17;;;;;;;54.03;28.90;;;;;;;;;;4964218;28;20053;-71
2022/01/29 00:49:43;;;;;;;54.25;28.15;;;;;;;;;;4972394;28;20037;-71
2022/01/29 00:52:09;;;;;;;51.42;29.42;;;;;;;;;;4958740;28;20045;-71
2022/01/29 00:54:34;;;;;;;54.17;28.67;;;;;;;;;;4982052;28;20030;-71
2022/01/29 00:56:59;;;;;;;47.15;28.50;;;;;;;;;;4965037;28;20053;-71
2022/01/29 00:59:25;;;;;;;56.15;31.17;;;;;;;;;;4963194;28;20049;-71
2022/01/29 01:01:50;;;;;;;52.30;29.77;;;;;;;;;;4974037;28;20045;-71
2022/01/29 01:04:16;;;;;;;52.85;30.67;;;;;;;;;;4956865;28;20218;-71
2022/01/29 01:06:41;;;;;;;45.75;29.20;;;;;;;;;;4972301;28;20545;-71
2022/01/29 01:09:06;;;;;;;45.13;29.20;;;;;;;;;;4965963;28;20486;-72
2022/01/29 01:11:31;;;;;;;54.10;28.85;;;;;;;;;;4960698;28;20046;-73
2022/01/29 01:13:57;;;;;;;49.58;31.60;;;;;;;;;;4971704;28;20034;-72
2022/01/29 01:16:22;;;;;;;47.33;30.90;;;;;;;;;;4957316;28;20164;-72
2022/01/29 01:18:48;;;;;;;55.47;31.27;;;;;;;;;;4971734;28;20026;-71
2022/01/29 01:21:13;;;;;;;52.65;30.60;;;;;;;;;;4965351;28;23570;-71
2022/01/29 01:23:38;;;;;;;49.03;30.52;;;;;;;;;;4961392;28;20141;-71
2022/01/29 01:26:04;;;;;;;59.70;31.52;;;;;;;;;;4958043;28;20056;-71
2022/01/29 01:28:29;;;;;;;58.63;31.88;;;;;;;;;;4956807;28;20065;-72
2022/01/29 01:30:55;;;;;;;56.20;32.92;;;;;;;;;;4972566;28;22637;-71
2022/01/29 01:33:20;;;;;;;57.03;32.50;;;;;;;;;;4967328;28;22432;-71
2022/01/29 01:35:50;;;;;;;61.50;33.97;;;;;;;;;;4962888;28;20054;-71
2022/01/29 01:38:23;;;;;;;57.08;32.63;;;;;;;;;;4974104;28;20149;-72
2022/01/29 01:40:56;;;;;;;62.35;32.45;;;;;;;;;;4955152;28;20108;-72
2022/01/29 01:43:22;;;;;;;67.88;33.83;;;;;;;;;;4970563;28;20107;-72
2022/01/29 01:45:47;;;;;;;64.13;31.98;;;;;;;;;;4963130;28;20639;-72
2022/01/29 01:48:12;;;;;;;60.55;32.90;;;;;;;;;;4960016;28;20049;-71
2022/01/29 01:50:38;;;;;;;59.88;32.83;;;;;;;;;;4972476;28;20393;-71
2022/01/29 01:53:04;;;;;;;53.75;32.95;;;;;;;;;;4953577;28;20077;-71
2022/01/29 01:55:30;;;;;;;61.17;33.22;;;;;;;;;;4971123;28;20413;-72
2022/01/29 01:57:55;;;;;;;60.50;31.65;;;;;;;;;;4957033;28;20033;-72
2022/01/29 02:00:21;;;;;;;55.15;31.83;;;;;;;;;;4971026;28;20030;-72
2022/01/29 02:02:46;;;;;;;67.93;32.17;;;;;;;;;;4980635;28;20148;-72
2022/01/29 02:05:12;;;;;;;67.88;32.65;;;;;;;;;;4946739;28;20136;-72
2022/01/29 02:07:37;;;;;;;69.35;35.33;;;;;;;;;;4969631;28;20110;-72
2022/01/29 02:10:03;;;;;;;64.03;33.13;;;;;;;;;;4968491;28;20431;-72
2022/01/29 02:12:32;;;;;;;64.25;33.08;;;;;;;;;;4969991;28;20029;-72
2022/01/29 02:15:02;;;;;;;79.32;35.13;;;;;;;;;;4967992;28;20034;-73
2022/01/29 02:17:27;;;;;;;67.53;34.10;;;;;;;;;;4953729;28;20049;-72
2022/01/29 02:19:53;;;;;;;67.03;34.90;;;;;;;;;;4970443;28;20040;-72
2022/01/29 02:22:18;;;;;;;65.95;34.78;;;;;;;;;;4953645;28;20050;-72
2022/01/29 02:24:43;;;;;;;73.65;35.08;;;;;;;;;;4971780;28;20065;-72
2022/01/29 02:27:09;;;;;;;66.53;35.03;;;;;;;;;;4971326;28;20022;-71
2022/01/29 02:29:35;;;;;;;64.28;33.03;;;;;;;;;;4933551;28;20136;-72
2022/01/29 02:32:00;;;;;;;77.70;35.60;;;;;;;;;;4980581;28;20026;-72
2022/01/29 02:34:29;;;;;;;75.18;36.95;;;;;;;;;;4956232;28;20053;-71
2022/01/29 02:36:55;;;;;;;76.53;36.03;;;;;;;;;;4971546;28;21026;-71
2022/01/29 02:39:21;;;;;;;69.00;36.25;;;;;;;;;;4958482;28;20057;-72
2022/01/29 02:41:46;;;;;;;66.13;35.28;;;;;;;;;;4961039;28;20545;-71
2022/01/29 02:44:18;;;;;;;71.93;34.92;;;;;;;;;;4969466;28;20049;-71
2022/01/29 02:47:03;;;;;;;75.00;33.80;;;;;;;;;;4954044;28;20049;-71
2022/01/29 02:49:28;;;;;;;74.90;35.63;;;;;;;;;;4970323;28;20041;-71
2022/01/29 02:51:55;;;;;;;67.15;33.60;;;;;;;;;;4963227;28;20038;-72
2022/01/29 02:54:21;;;;;;;65.00;32.92;;;;;;;;;;4960527;28;20123;-71
2022/01/29 02:56:46;;;;;;;67.75;32.58;;;;;;;;;;4970972;28;20038;-71
2022/01/29 02:59:12;;;;;;;61.80;31.98;;;;;;;;;;4953124;28;20065;-71
2022/01/29 03:01:38;;;;;;;65.15;32.42;;;;;;;;;;4969854;28;20044;-71
2022/01/29 03:04:03;;;;;;;71.57;30.95;;;;;;;;;;4954900;28;20038;-71
2022/01/29 03:06:29;;;;;;;62.85;30.08;;;;;;;;;;4969572;28;20037;-72
2022/01/29 03:08:55;;;;;;;61.17;30.70;;;;;;;;;;4970244;28;20681;-71
2022/01/29 03:11:20;;;;;;;66.80;29.77;;;;;;;;;;4956330;28;20054;-71
2022/01/29 03:13:46;;;;;;;53.90;28.27;;;;;;;;;;4963037;28;20069;-71
2022/01/29 03:16:11;;;;;;;54.65;27.48;;;;;;;;;;4955473;28;20044;-71
2022/01/29 03:18:36;;;;;;;56.00;28.35;;;;;;;;;;4983952;28;20040;-71
2022/01/29 03:21:02;;;;;;;56.58;26.83;;;;;;;;;;4969657;28;20049;-71
2022/01/29 03:23:27;;;;;;;55.72;26.67;;;;;;;;;;4950701;28;20073;-72
2022/01/29 03:25:52;;;;;;;52.65;26.65;;;;;;;;;;4969743;28;20041;-72
2022/01/29 03:28:18;;;;;;;55.53;26.23;;;;;;;;;;4952644;28;20068;-72
2022/01/29 03:30:43;;;;;;;50.80;23.92;;;;;;;;;;4969679;28;20021;-72
2022/01/29 03:33:08;;;;;;;47.10;24.02;;;;;;;;;;4969898;28;20111;-72
2022/01/29 03:35:34;;;;;;;51.78;24.20;;;;;;;;;;4955022;28;21172;-72
2022/01/29 03:37:59;;;;;;;53.15;23.90;;;;;;;;;;4969487;28;20034;-72
2022/01/29 03:40:24;;;;;;;42.95;23.48;;;;;;;;;;4954505;28;22686;-72
2022/01/29 03:43:09;;;;;;;46.83;23.73;;;;;;;;;;4970544;28;20068;-73
2022/01/29 03:45:34;;;;;;;45.38;23.35;;;;;;;;;;4967797;28;20026;-72
2022/01/29 03:48:00;;;;;;;51.80;23.40;;;;;;;;;;4955964;28;20064;-73
2022/01/29 03:50:25;;;;;;;49.70;22.27;;;;;;;;;;4969508;28;20057;-72
2022/01/29 03:52:50;;;;;;;46.05;21.77;;;;;;;;;;4951119;28;20133;-72
2022/01/29 03:55:16;;;;;;;39.85;23.30;;;;;;;;;;4967784;28;20045;-72
2022/01/29 03:57:41;;;;;;;43.47;21.83;;;;;;;;;;4967260;28;20066;-72
2022/01/29 04:00:07;;;;;;;43.00;23.30;;;;;;;;;;4956468;28;20084;-72
2022/01/29 04:02:32;;;;;;;46.67;24.58;;;;;;;;;;4954927;28;20096;-72
2022/01/29 04:04:57;;;;;;;45.78;22.25;;;;;;;;;;4949693;28;20133;-72
2022/01/29 04:07:23;;;;;;;38.55;21.67;;;;;;;;;;4968497;28;20113;-72
2022/01/29 04:09:50;;;;;;;47.30;23.05;;;;;;;;;;4966822;28;20573;-72
2022/01/29 04:12:16;;;;;;;47.15;21.73;;;;;;;;;;4957670;28;20045;-72
2022/01/29 04:14:42;;;;;;;42.22;21.90;;;;;;;;;;4970016;28;20513;-72
2022/01/29 04:17:07;;;;;;;37.42;20.60;;;;;;;;;;4956258;28;20054;-72
2022/01/29 04:19:34;;;;;;;51.83;23.42;;;;;;;;;;4974618;28;20030;-72
2022/01/29 04:21:59;;;;;;;49.55;22.15;;;;;;;;;;4967426;28;20028;-72
2022/01/29 04:24:25;;;;;;;39.63;20.48;;;;;;;;;;4961197;28;20042;-72
2022/01/29 04:26:50;;;;;;;43.85;21.13;;;;;;;;;;4973966;28;20021;-72
2022/01/29 04:29:16;;;;;;;38.75;21.70;;;;;;;;;;4957234;28;20113;-72
2022/01/29 04:32:00;;;;;;;40.65;20.55;;;;;;;;;;4966650;28;20073;-72
2022/01/29 04:34:25;;;;;;;;;;;;;;;;;;4966583;28;20065;-72
2022/01/29 04:36:50;;;;;;;42.60;20.23;;;;;;;;;;4962533;28;20473;-72
2022/01/29 04:39:15;;;;;;;46.13;21.63;;;;;;;;;;4975042;28;20490;-72
2022/01/29 04:41:41;;;;;;;46.65;22.17;;;;;;;;;;4956745;28;20057;-71
2022/01/29 04:44:06;;;;;;;45.55;20.80;;;;;;;;;;4973572;28;20083;-72
2022/01/29 04:46:32;;;;;;;37.03;21.55;;;;;;;;;;4967274;28;20081;-71
2022/01/29 04:48:57;;;;;;;45.88;22.38;;;;;;;;;;4962828;28;20046;-72
2022/01/29 04:51:23;;;;;;;34.15;20.52;;;;;;;;;;4971310;28;20033;-72
2022/01/29 04:53:48;;;;;;;43.17;22.88;;;;;;;;;;4956836;28;20591;-72
2022/01/29 04:56:14;;;;;;;46.05;22.25;;;;;;;;;;4967295;28;20520;-71
2022/01/29 04:58:39;;;;;;;38.95;22.05;;;;;;;;;;4962851;28;20077;-72
2022/01/29 05:01:04;;;;;;;37.58;22.17;;;;;;;;;;4963390;28;20077;-72
2022/01/29 05:03:30;;;;;;;42.67;21.33;;;;;;;;;;4970212;28;20080;-72
2022/01/29 05:05:55;;;;;;;43.83;22.38;;;;;;;;;;4957372;28;20050;-72
2022/01/29 05:08:21;;;;;;;40.33;21.27;;;;;;;;;;4971979;28;20062;-72
2022/01/29 05:10:47;;;;;;;45.35;22.88;;;;;;;;;;4967537;28;20112;-72
2022/01/29 05:13:16;;;;;;;47.65;23.00;;;;;;;;;;4956786;28;20060;-72
2022/01/29 05:29:06;;;;;;;39.72;21.60;;;;;;;;;;4958661;28;20060;-72
2022/01/29 05:31:31;;;;;;;41.13;20.73;;;;;;;;;;4971124;28;20625;-72
2022/01/29 05:33:57;;;;;;;43.08;21.08;;;;;;;;;;4971102;28;20552;-72
2022/01/29 05:36:22;;;;;;;40.28;21.30;;;;;;;;;;4954147;28;20058;-72
2022/01/29 05:38:48;;;;;;;36.55;21.05;;;;;;;;;;4968941;28;20088;-72
2022/01/29 05:41:13;;;;;;;35.50;20.90;;;;;;;;;;4955321;28;20050;-72
2022/01/29 05:43:38;;;;;;;42.80;21.02;;;;;;;;;;4971648;28;20076;-72
2022/01/29 05:46:04;;;;;;;42.35;21.85;;;;;;;;;;4972093;28;20139;-72
2022/01/29 05:48:29;;;;;;;36.30;20.90;;;;;;;;;;4954539;28;20052;-72
2022/01/29 05:50:55;;;;;;;38.42;21.98;;;;;;;;;;4971669;28;20026;-72
2022/01/29 05:53:21;;;;;;;34.85;21.15;;;;;;;;;;4949781;28;23628;-72
2022/01/29 05:55:46;;;;;;;38.83;21.77;;;;;;;;;;4971073;28;20038;-72
2022/01/29 05:58:11;;;;;;;39.05;21.27;;;;;;;;;;4970736;28;20482;-72
2022/01/29 06:00:37;;;;;;;34.33;22.35;;;;;;;;;;4955952;28;20058;-72
2022/01/29 06:03:03;;;;;;;45.22;24.38;;;;;;;;;;4970402;28;20026;-72
2022/01/29 06:05:29;;;;;;;41.38;21.92;;;;;;;;;;4963995;28;20053;-72
2022/01/29 06:07:55;;;;;;;38.80;22.38;;;;;;;;;;4970764;28;20379;-72
2022/01/29 06:10:20;;;;;;;36.05;21.27;;;;;;;;;;4971190;28;20030;-72
2022/01/29 06:12:55;;;;;;;39.78;23.10;;;;;;;;;;4947749;28;20079;-72
2022/01/29 06:15:21;;;;;;;37.47;21.80;;;;;;;;;;4971724;28;20371;-72
2022/01/29 06:17:46;;;;;;;37.90;22.08;;;;;;;;;;4954473;28;20053;-72
2022/01/29 06:20:11;;;;;;;40.63;21.77;;;;;;;;;;4970667;28;20045;-73
2022/01/29 06:22:37;;;;;;;36.83;21.55;;;;;;;;;;4967327;28;20631;-72
2022/01/29 06:25:02;;;;;;;37.70;21.42;;;;;;;;;;4958453;28;20050;-72
2022/01/29 06:27:27;;;;;;;35.97;21.35;;;;;;;;;;4971187;28;20096;-72
2022/01/29 06:29:52;;;;;;;39.83;21.17;;;;;;;;;;4954587;28;20133;-72
2022/01/29 06:32:18;;;;;;;38.25;20.05;;;;;;;;;;4964999;28;20025;-72
2022/01/29 06:34:43;;;;;;;36.83;20.92;;;;;;;;;;4965610;28;20586;-72
2022/01/29 06:37:08;;;;;;;34.33;21.17;;;;;;;;;;4959848;28;20050;-72
2022/01/29 06:39:34;;;;;;;38.13;20.13;;;;;;;;;;4964899;28;20036;-72
2022/01/29 06:41:59;;;;;;;30.67;19.48;;;;;;;;;;4955717;28;20049;-72
2022/01/29 06:44:24;;;;;;;31.20;19.85;;;;;;;;;;4970434;28;20068;-72
2022/01/29 06:46:49;;;;;;;28.40;19.85;;;;;;;;;;4961396;28;20116;-73
2022/01/29 06:49:15;;;;;;;36.45;20.48;;;;;;;;;;4959480;28;20169;-73
2022/01/29 06:51:40;;;;;;;39.60;21.00;;;;;;;;;;4969862;28;20029;-73
2022/01/29 06:54:05;;;;;;;34.58;19.33;;;;;;;;;;4952864;28;20057;-73
2022/01/29 06:56:31;;;;;;;35.10;17.98;;;;;;;;;;4969231;28;20059;-73
2022/01/29 06:58:56;;;;;;;34.45;19.88;;;;;;;;;;4964724;28;20216;-73
2022/01/29 07:01:21;;;;;;;32.58;18.83;;;;;;;;;;4956703;28;20060;-73
2022/01/29 07:03:46;;;;;;;33.20;19.92;;;;;;;;;;4971113;28;20054;-73
2022/01/29 07:06:12;;;;;;;33.85;19.73;;;;;;;;;;4953169;28;20723;-73
2022/01/29 07:08:39;;;;;;;35.63;19.45;;;;;;;;;;4969859;28;20025;-73
2022/01/29 07:11:04;;;;;;;32.17;18.73;;;;;;;;;;4963744;28;20037;-73
2022/01/29 07:13:30;;;;;;;26.65;18.98;;;;;;;;;;4959046;28;20100;-73
2022/01/29 07:15:56;;;;;;;25.60;16.65;;;;;;;;;;4968852;28;20705;-73
2022/01/29 07:18:21;;;;;;;28.55;16.55;;;;;;;;;;4953179;28;20077;-72
2022/01/29 07:20:48;;;;;;;23.80;17.25;;;;;;;;;;4967290;28;20025;-73
2022/01/29 07:23:13;;;;;;;30.00;18.02;;;;;;;;;;4964496;28;20084;-72
2022/01/29 07:25:38;;;;;;;31.52;18.08;;;;;;;;;;4959468;28;20420;-72
2022/01/29 07:28:04;;;;;;;30.83;18.40;;;;;;;;;;4969344;28;20018;-72
2022/01/29 07:30:29;;;;;;;31.40;17.05;;;;;;;;;;4954276;28;20053;-73
2022/01/29 07:32:54;;;;;;;31.83;18.02;;;;;;;;;;4963568;28;20370;-73
2022/01/29 07:35:19;;;;;;;27.52;18.23;;;;;;;;;;4965718;28;20056;-73
2022/01/29 07:37:45;;;;;;;26.50;18.10;;;;;;;;;;4959697;28;20057;-73
2022/01/29 07:40:10;;;;;;;31.42;18.35;;;;;;;;;;4968608;28;20107;-72
2022/01/29 07:42:36;;;;;;;24.85;17.65;;;;;;;;;;4952960;28;20060;-72
2022/01/29 07:45:02;;;;;;;25.90;17.05;;;;;;;;;;4968108;28;20034;-71
2022/01/29 07:47:27;;;;;;;27.08;17.52;;;;;;;;;;4960677;28;20073;-72
2022/01/29 07:49:53;;;;;;;30.80;17.75;;;;;;;;;;4956955;28;20042;-71
2022/01/29 07:52:18;;;;;;;25.48;16.80;;;;;;;;;;4972575;28;20053;-71
2022/01/29 07:54:43;;;;;;;30.10;18.00;;;;;;;;;;4956715;28;20152;-72
2022/01/29 07:57:08;;;;;;;25.83;18.00;;;;;;;;;;4966355;28;20037;-72
2022/01/29 07:59:34;;;;;;;22.58;16.95;;;;;;;;;;4965596;28;20452;-71
2022/01/29 08:01:59;;;;;;;33.90;18.33;;;;;;;;;;4962327;28;20062;-71
2022/01/29 08:04:24;;;;;;;34.03;18.55;;;;;;;;;;4970200;28;20041;-71
2022/01/29 08:06:52;;;;;;;34.30;17.85;;;;;;;;;;4955969;28;20060;-71
2022/01/29 08:09:18;;;;;;;35.17;17.35;;;;;;;;;;4966636;28;21171;-71
2022/01/29 08:11:43;;;;;;;32.78;17.23;;;;;;;;;;4960177;28;20046;-71
2022/01/29 08:14:09;;;;;;;37.15;18.83;;;;;;;;;;4956655;28;20042;-71
2022/01/29 08:16:34;;;;;;;32.75;19.13;;;;;;;;;;4960330;28;20046;-73
2022/01/29 08:18:59;;;;;;;29.48;18.08;;;;;;;;;;4948062;28;20133;-71
2022/01/29 08:21:25;;;;;;;39.42;17.98;;;;;;;;;;4966194;28;20683;-70
2022/01/29 08:23:50;;;;;;;34.60;18.73;;;;;;;;;;4959721;28;20071;-71
2022/01/29 08:26:15;;;;;;;34.58;17.17;;;;;;;;;;4957995;28;20046;-71
2022/01/29 08:28:41;;;;;;;30.60;17.50;;;;;;;;;;4968219;28;20089;-71
2022/01/29 08:31:06;;;;;;;34.63;17.38;;;;;;;;;;4952582;28;20045;-71
2022/01/29 08:33:32;;;;;;;32.83;17.10;;;;;;;;;;4967318;28;20160;-71
2022/01/29 08:35:58;;;;;;;33.67;16.02;;;;;;;;;;4963037;28;20038;-71
2022/01/29 08:38:24;;;;;;;23.33;14.95;;;;;;;;;;4959438;28;20050;-71
2022/01/29 08:40:49;;;;;;;29.95;15.23;;;;;;;;;;4970148;28;20167;-71
2022/01/29 08:43:15;;;;;;;35.42;15.40;;;;;;;;;;4949719;28;20049;-71
2022/01/29 08:45:40;;;;;;;26.85;14.45;;;;;;;;;;4965995;28;20065;-71
2022/01/29 08:48:05;;;;;;;23.42;14.40;;;;;;;;;;4960033;28;20073;-71
2022/01/29 08:50:31;;;;;;;26.40;13.63;;;;;;;;;;4963092;28;20598;-71
2022/01/29 08:52:56;;;;;;;28.38;13.65;;;;;;;;;;4955800;28;20026;-72
2022/01/29 08:55:21;;;;;;;26.77;13.20;;;;;;;;;;4954153;28;20046;-73
2022/01/29 08:57:47;;;;;;;26.48;13.57;;;;;;;;;;4972458;28;20950;-74
2022/01/29 09:00:13;;;;;;;20.98;12.13;;;;;;;;;;4965681;28;20050;-73
2022/01/29 09:02:38;;;;;;;29.50;12.05;;;;;;;;;;4961093;28;20096;-73
2022/01/29 09:05:04;;;;;;;22.40;10.90;;;;;;;;;;4971898;28;20037;-73
2022/01/29 09:07:29;;;;;;;20.92;10.05;;;;;;;;;;4956979;28;20061;-73
2022/01/29 09:09:55;;;;;;;19.70;9.35;;;;;;;;;;4971584;28;20507;-73
2022/01/29 09:12:20;;;;;;;19.40;10.40;;;;;;;;;;4955941;28;20504;-73
2022/01/29 09:14:46;;;;;;;16.17;9.43;;;;;;;;;;4972271;28;20473;-73
2022/01/29 09:17:11;;;;;;;18.70;9.48;;;;;;;;;;4972756;28;20045;-74
2022/01/29 09:19:36;;;;;;;19.65;8.27;;;;;;;;;;4960266;28;20049;-74
2022/01/29 09:22:02;;;;;;;19.50;8.85;;;;;;;;;;4979043;28;20057;-73
2022/01/29 09:24:27;;;;;;;19.13;7.93;;;;;;;;;;4966676;28;20577;-73
2022/01/29 09:26:52;;;;;;;22.20;7.88;;;;;;;;;;4971422;28;20033;-74
2022/01/29 09:29:18;;;;;;;20.38;8.52;;;;;;;;;;4973481;28;20029;-73
2022/01/29 09:31:43;;;;;;;17.35;7.53;;;;;;;;;;4955612;28;20054;-73
2022/01/29 09:34:08;;;;;;;16.27;7.80;;;;;;;;;;4972396;28;20060;-73
2022/01/29 09:36:34;;;;;;;20.17;7.40;;;;;;;;;;4956680;28;20050;-73
2022/01/29 09:38:59;;;;;;;17.02;7.28;;;;;;;;;;4971932;28;20026;-73
2022/01/29 09:41:25;;;;;;;16.38;6.65;;;;;;;;;;4970323;28;20036;-72
2022/01/29 09:43:51;;;;;;;19.90;7.00;;;;;;;;;;4955790;28;20073;-73
2022/01/29 09:46:17;;;;;;;17.42;6.57;;;;;;;;;;4969869;28;21294;-72
2022/01/29 09:48:43;;;;;;;18.80;6.85;;;;;;;;;;4956960;28;20073;-72
2022/01/29 09:51:12;;;;;;;14.85;6.85;;;;;;;;;;4970677;28;20490;-73
2022/01/29 09:53:38;;;;;;;18.70;6.18;;;;;;;;;;4969509;28;20030;-73
2022/01/29 09:56:03;;;;;;;17.30;5.38;;;;;;;;;;4955115;28;20124;-72
2022/01/29 09:58:28;;;;;;;13.48;5.85;;;;;;;;;;4972119;28;20025;-74
2022/01/29 10:00:54;;;;;;;13.80;6.20;;;;;;;;;;4949053;28;20560;-74
2022/01/29 10:03:19;;;;;;;13.88;5.40;;;;;;;;;;4979755;28;20037;-74
2022/01/29 10:05:50;;;;;;;15.30;5.20;;;;;;;;;;4970889;28;20445;-74
2022/01/29 10:08:15;;;;;;;13.93;4.82;;;;;;;;;;4955499;28;20088;-73
2022/01/29 10:10:48;;;;;;;12.38;5.85;;;;;;;;;;4972250;28;20022;-75
2022/01/29 10:13:25;;;;;;;12.57;4.95;;;;;;;;;;4954910;28;20108;-74
2022/01/29 10:15:52;;;;;;;12.25;4.72;;;;;;;;;;4973949;28;20036;-74
2022/01/29 10:18:21;;;;;;;11.32;3.78;;;;;;;;;;4964295;28;20105;-73
2022/01/29 10:20:46;;;;;;;16.75;4.80;;;;;;;;;;4961517;28;20112;-73
2022/01/29 10:23:12;;;;;;;17.10;5.07;;;;;;;;;;4972207;28;20037;-74
2022/01/29 10:25:41;;;;;;;12.05;4.15;;;;;;;;;;4957659;28;20077;-74
2022/01/29 10:28:14;;;;;;;15.48;4.70;;;;;;;;;;4965096;28;20032;-73
2022/01/29 10:30:49;;;;;;;17.33;4.72;;;;;;;;;;4966826;28;20050;-73
2022/01/29 10:33:26;;;;;;;15.10;4.13;;;;;;;;;;4963179;28;20076;-73
2022/01/29 10:35:53;;;;;;;10.02;3.42;;;;;;;;;;4972012;28;22708;-73
2022/01/29 10:38:20;;;;;;;11.50;3.72;;;;;;;;;;4956866;28;20137;-73
2022/01/29 10:40:45;;;;;;;13.80;3.67;;;;;;;;;;4970553;28;20130;-73
2022/01/29 10:43:11;;;;;;;15.07;3.30;;;;;;;;;;4955224;28;20088;-73
2022/01/29 10:45:37;;;;;;;10.73;3.95;;;;;;;;;;4970651;28;20029;-73
2022/01/29 10:48:04;;;;;;;11.48;3.25;;;;;;;;;;4972518;28;20057;-73
2022/01/29 10:50:31;;;;;;;16.92;3.70;;;;;;;;;;4953850;28;20049;-73
2022/01/29 10:52:56;;;;;;;14.63;3.65;;;;;;;;;;4971136;28;20267;-73
2022/01/29 10:55:22;;;;;;;9.60;2.90;;;;;;;;;;4957189;28;20049;-73
2022/01/29 10:57:48;;;;;;;11.75;2.53;;;;;;;;;;4966945;28;20080;-74
2022/01/29 11:00:21;;;;;;;13.60;3.00;;;;;;;;;;4965941;28;21047;-74
2022/01/29 11:02:46;;;;;;;11.40;3.03;;;;;;;;;;4960654;28;20153;-73
2022/01/29 11:05:13;;;;;;;10.15;2.50;;;;;;;;;;4971672;28;20029;-73
2022/01/29 11:07:39;;;;;;;17.40;3.10;;;;;;;;;;4950202;28;20998;-73
2022/01/29 11:10:06;;;;;;;10.85;3.00;;;;;;;;;;4970270;28;20033;-74
2022/01/29 11:12:31;;;;;;;13.45;3.33;;;;;;;;;;4957917;28;20558;-74
2022/01/29 11:14:59;;;;;;;9.43;2.42;;;;;;;;;;4961594;28;20050;-74
2022/01/29 11:17:24;;;;;;;12.60;2.35;;;;;;;;;;4970502;28;20037;-74
2022/01/29 11:19:50;;;;;;;13.18;2.55;;;;;;;;;;4954534;28;21071;-74
2022/01/29 11:22:19;;;;;;;13.77;3.15;;;;;;;;;;4970102;28;20038;-73
2022/01/29 11:24:46;;;;;;;13.18;3.38;;;;;;;;;;4964542;28;20041;-74
2022/01/29 11:27:23;;;;;;;14.13;2.78;;;;;;;;;;4953445;28;20490;-74
2022/01/29 11:30:00;;;;;;;9.73;2.75;;;;;;;;;;4968106;28;20026;-75
2022/01/29 11:32:27;;;;;;;10.52;2.40;;;;;;;;;;4954673;28;20189;-73
2022/01/29 11:34:59;;;;;;;13.95;2.83;;;;;;;;;;4969024;28;20077;-74
2022/01/29 11:37:37;;;;;;;10.48;2.50;;;;;;;;;;4954093;28;20061;-76
2022/01/29 11:40:11;;;;;;;10.85;2.72;;;;;;;;;;4971358;28;20084;-74
2022/01/29 11:42:37;;;;;;;12.70;2.53;;;;;;;;;;4943103;28;20084;-74
2022/01/29 11:45:21;;;;;;;11.93;2.85;;;;;;;;;;4974550;28;20114;-75
2022/01/29 11:47:47;;;;;;;14.63;3.78;;;;;;;;;;4972084;28;20050;-75
2022/01/29 11:50:18;;;;;;;10.05;2.28;;;;;;;;;;4949064;28;20085;-73
2022/01/29 11:52:56;;;;;;;15.40;3.63;;;;;;;;;;4970680;28;20025;-73
2022/01/29 11:55:57;;;;;;;10.23;2.63;;;;;;;;;;4955428;28;20053;-74
2022/01/29 11:58:25;;;;;;;11.07;2.45;;;;;;;;;;4988496;28;20033;-74
2022/01/29 12:00:52;;;;;;;10.23;2.40;;;;;;;;;;4966847;28;20037;-74
2022/01/29 12:03:44;;;;;;;12.43;2.47;;;;;;;;;;4960916;28;20039;-74
2022/01/29 12:09:06;;;;;;;13.43;2.60;;;;;;;;;;4952815;28;20046;-74
2022/01/29 12:11:32;;;;;;;9.48;1.98;;;;;;;;;;4969211;28;20077;-74
2022/01/29 12:14:13;;;;;;;10.30;1.95;;;;;;;;;;4952730;28;20077;-74
2022/01/29 12:16:49;;;;;;;9.07;1.73;;;;;;;;;;4968059;28;20029;-73
2022/01/29 12:19:33;;;;;;;10.55;2.00;;;;;;;;;;4961394;28;20545;-75
2022/01/29 12:21:59;;;;;;;9.18;2.17;;;;;;;;;;4969147;28;20065;-75
2022/01/29 12:24:24;;;;;;;13.18;3.65;;;;;;;;;;4970547;28;20034;-75
2022/01/29 12:26:53;;;;;;;7.63;1.70;;;;;;;;;;4954502;28;20655;-75
2022/01/29 12:29:18;;;;;;;13.82;2.03;;;;;;;;;;4968057;28;20038;-75
2022/01/29 12:31:50;;;;;;;9.00;1.83;;;;;;;;;;4955439;28;20626;-74
2022/01/29 12:34:16;;;;;;;5.38;1.73;;;;;;;;;;4969637;28;20034;-74
2022/01/29 12:36:41;;;;;;;11.35;2.33;;;;;;;;;;4968924;28;20036;-74
2022/01/29 12:39:08;;;;;;;7.82;1.83;;;;;;;;;;4960586;28;20434;-74
2022/01/29 12:41:38;;;;;;;13.30;2.15;;;;;;;;;;4973994;28;20022;-75
2022/01/29 12:44:08;;;;;;;9.75;2.40;;;;;;;;;;4955086;28;20045;-75
2022/01/29 12:46:34;;;;;;;13.40;2.53;;;;;;;;;;4972016;28;20706;-75
2022/01/29 12:49:02;;;;;;;11.25;2.20;;;;;;;;;;4965392;28;20045;-74
2022/01/29 12:51:28;;;;;;;16.88;2.50;;;;;;;;;;4962963;28;20164;-75
2022/01/29 12:54:02;;;;;;;14.40;2.20;;;;;;;;;;4971965;28;20112;-75
2022/01/29 12:56:34;;;;;;;18.33;3.42;;;;;;;;;;4957715;28;20056;-75
2022/01/29 12:59:04;;;;;;;13.85;1.80;;;;;;;;;;4972338;28;20037;-74
2022/01/29 13:01:30;;;;;;;12.55;2.08;;;;;;;;;;4968469;28;20138;-75
2022/01/29 13:04:01;;;;;;;12.35;2.55;;;;;;;;;;4962776;28;20041;-75
2022/01/29 13:06:26;;;;;;;9.18;2.33;;;;;;;;;;4972206;28;20441;-75
2022/01/29 13:08:52;;;;;;;11.35;1.95;;;;;;;;;;4948804;28;20042;-75
2022/01/29 13:11:24;;;;;;;17.67;3.13;;;;;;;;;;4971992;28;20041;-75
2022/01/29 13:13:49;;;;;;;11.30;2.33;;;;;;;;;;4956998;28;20038;-75
2022/01/29 13:16:15;;;;;;;11.93;2.72;;;;;;;;;;4966416;28;20036;-75
2022/01/29 13:18:40;;;;;;;12.55;2.13;;;;;;;;;;4972599;28;20458;-75
2022/01/29 13:21:06;;;;;;;16.33;2.22;;;;;;;;;;4955420;28;20138;-75
2022/01/29 13:23:32;;;;;;;16.33;2.58;;;;;;;;;;4966184;28;20132;-74
2022/01/29 13:25:57;;;;;;;15.63;2.88;;;;;;;;;;4957840;28;20050;-74
2022/01/29 13:28:27;;;;;;;8.95;2.40;;;;;;;;;;4973323;28;20029;-75
2022/01/29 13:31:02;;;;;;;13.25;2.47;;;;;;;;;;4972069;28;20029;-74
2022/01/29 13:33:32;;;;;;;15.05;2.50;;;;;;;;;;4934331;28;20049;-74
2022/01/29 13:35:58;;;;;;;12.73;3.13;;;;;;;;;;4971792;28;20025;-74
2022/01/29 13:38:28;;;;;;;14.13;2.58;;;;;;;;;;4957000;28;20181;-75
2022/01/29 13:40:58;;;;;;;14.52;2.40;;;;;;;;;;4971122;28;20036;-74
2022/01/29 13:43:35;;;;;;;9.00;2.05;;;;;;;;;;4956714;28;20038;-73
2022/01/29 13:46:04;;;;;;;13.70;2.30;;;;;;;;;;4960631;28;20120;-73
2022/01/29 13:48:41;;;;;;;11.27;2.20;;;;;;;;;;4968448;28;20052;-74
2022/01/29 13:51:06;;;;;;;18.55;3.13;;;;;;;;;;4956139;28;20775;-74
2022/01/29 13:53:46;;;;;;;13.65;2.60;;;;;;;;;;4971153;28;20032;-74
2022/01/29 13:56:12;;;;;;;12.13;2.25;;;;;;;;;;4955676;28;20081;-74
2022/01/29 13:58:45;;;;;;;10.45;2.13;;;;;;;;;;4972093;28;20446;-76
2022/01/29 14:01:10;;;;;;;14.23;1.95;;;;;;;;;;4972786;28;22390;-74
2022/01/29 14:03:39;;;;;;;10.60;2.78;;;;;;;;;;4966121;28;20057;-74
2022/01/29 14:06:26;;;;;;;13.73;2.08;;;;;;;;;;4971412;28;20030;-74
2022/01/29 14:09:11;;;;;;;12.65;2.60;;;;;;;;;;4965220;28;20078;-74
2022/01/29 14:11:56;;;;;;;10.23;2.33;;;;;;;;;;4975225;28;20536;-74
2022/01/29 14:14:22;;;;;;;11.35;1.88;;;;;;;;;;4955168;28;20045;-74
2022/01/29 14:16:47;;;;;;;6.95;1.40;;;;;;;;;;4970469;28;20152;-73
2022/01/29 14:19:17;;;;;;;13.95;2.08;;;;;;;;;;4962373;28;20044;-74
2022/01/29 14:21:42;;;;;;;15.40;2.15;;;;;;;;;;4964530;28;20061;-73
2022/01/29 14:24:08;;;;;;;8.73;2.05;;;;;;;;;;4977585;28;20022;-74
2022/01/29 14:26:33;;;;;;;14.77;2.28;;;;;;;;;;4968857;28;20556;-75
2022/01/29 14:28:58;;;;;;;10.55;2.13;;;;;;;;;;4987153;28;20025;-74
2022/01/29 14:31:24;;;;;;;17.13;2.65;;;;;;;;;;4977551;28;20965;-74
2022/01/29 14:33:49;;;;;;;11.48;2.08;;;;;;;;;;4969628;28;20061;-74
2022/01/29 14:36:14;;;;;;;15.60;2.90;;;;;;;;;;4969370;28;20482;-74
2022/01/29 14:38:39;;;;;;;7.63;1.75;;;;;;;;;;4957305;28;20049;-74